sensor_id;sensor_type;location;lat;lon;timestamp;temperature;humidity
51595;DHT22;37677;53.254;6.594;2022-10-16T00:01:12;13.20;1.00
51595;DHT22;37677;53.254;6.594;2022-10-16T00:03:39;12.90;1.00
51595;DHT22;37677;53.254;6.594;2022-10-16T00:06:05;12.90;1.00
51595;DHT22;37677;53.254;6.594;2022-10-16T00:08:31;13.30;1.00
51595;DHT22;37677;53.254;6.594;2022-10-16T00:11:07;12.90;1.00
51595;DHT22;37677;53.254;6.594;2022-10-16T00:13:34;12.90;1.00
51595;DHT22;37677;53.254;6.594;2022-10-16T00:16:00;12.90;1.00
51595;DHT22;37677;53.254;6.594;2022-10-16T00:18:27;12.90;1.00
51595;DHT22;37677;53.254;6.594;2022-10-16T00:20:54;12.90;1.00
51595;DHT22;37677;53.254;6.594;2022-10-16T00:23:20;12.90;1.00
51595;DHT22;37677;53.254;6.594;2022-10-16T00:25:55;12.90;1.00
51595;DHT22;37677;53.254;6.594;2022-10-16T00:28:21;12.80;1.00
51595;DHT22;37677;53.254;6.594;2022-10-16T00:30:46;12.80;1.00
51595;DHT22;37677;53.254;6.594;2022-10-16T00:33:12;13.00;1.00
51595;DHT22;37677;53.254;6.594;2022-10-16T00:35:38;12.90;1.00
51595;DHT22;37677;53.254;6.594;2022-10-16T00:38:03;12.90;1.00
51595;DHT22;37677;53.254;6.594;2022-10-16T00:40:29;12.90;1.00
51595;DHT22;37677;53.254;6.594;2022-10-16T00:42:54;14.20;1.00
51595;DHT22;37677;53.254;6.594;2022-10-16T00:45:20;12.90;1.00
51595;DHT22;37677;53.254;6.594;2022-10-16T00:47:47;12.90;1.00
51595;DHT22;37677;53.254;6.594;2022-10-16T00:50:32;12.90;1.00
51595;DHT22;37677;53.254;6.594;2022-10-16T00:52:59;12.90;1.00
51595;DHT22;37677;53.254;6.594;2022-10-16T00:55:26;12.90;1.00
51595;DHT22;37677;53.254;6.594;2022-10-16T00:57:53;12.90;1.00
51595;DHT22;37677;53.254;6.594;2022-10-16T01:00:24;12.90;1.00
51595;DHT22;37677;53.254;6.594;2022-10-16T01:02:55;12.90;1.00
51595;DHT22;37677;53.254;6.594;2022-10-16T01:05:31;13.10;1.00
51595;DHT22;37677;53.254;6.594;2022-10-16T01:08:08;12.90;1.00
51595;DHT22;37677;53.254;6.594;2022-10-16T01:10:39;13.00;1.00
51595;DHT22;37677;53.254;6.594;2022-10-16T01:13:17;12.90;1.00
51595;DHT22;37677;53.254;6.594;2022-10-16T01:16:06;12.90;1.00
51595;DHT22;37677;53.254;6.594;2022-10-16T01:18:49;13.00;1.00
51595;DHT22;37677;53.254;6.594;2022-10-16T01:21:28;12.90;1.00
51595;DHT22;37677;53.254;6.594;2022-10-16T01:24:06;12.90;1.00
51595;DHT22;37677;53.254;6.594;2022-10-16T01:29:54;12.90;1.00
51595;DHT22;37677;53.254;6.594;2022-10-16T01:32:52;12.90;1.00
51595;DHT22;37677;53.254;6.594;2022-10-16T01:35:47;12.90;1.00
51595;DHT22;37677;53.254;6.594;2022-10-16T01:38:23;12.90;1.00
51595;DHT22;37677;53.254;6.594;2022-10-16T01:40:56;12.90;1.00
51595;DHT22;37677;53.254;6.594;2022-10-16T01:43:53;13.50;1.00
51595;DHT22;37677;53.254;6.594;2022-10-16T01:46:21;12.90;1.00
51595;DHT22;37677;53.254;6.594;2022-10-16T01:48:48;12.90;1.00
51595;DHT22;37677;53.254;6.594;2022-10-16T01:51:17;13.10;1.00
51595;DHT22;37677;53.254;6.594;2022-10-16T01:53:46;12.90;1.00
51595;DHT22;37677;53.254;6.594;2022-10-16T01:56:15;12.90;1.00
51595;DHT22;37677;53.254;6.594;2022-10-16T01:58:47;13.00;1.00
51595;DHT22;37677;53.254;6.594;2022-10-16T02:01:16;13.00;1.00
51595;DHT22;37677;53.254;6.594;2022-10-16T02:03:44;13.00;1.00
51595;DHT22;37677;53.254;6.594;2022-10-16T02:06:12;12.90;1.00
51595;DHT22;37677;53.254;6.594;2022-10-16T02:08:38;13.00;1.00
51595;DHT22;37677;53.254;6.594;2022-10-16T02:11:06;13.00;1.00
51595;DHT22;37677;53.254;6.594;2022-10-16T02:13:48;12.90;1.00
51595;DHT22;37677;53.254;6.594;2022-10-16T02:16:15;13.00;1.00
51595;DHT22;37677;53.254;6.594;2022-10-16T02:18:42;12.90;1.00
51595;DHT22;37677;53.254;6.594;2022-10-16T02:21:27;13.00;1.00
51595;DHT22;37677;53.254;6.594;2022-10-16T02:24:04;13.00;1.00
51595;DHT22;37677;53.254;6.594;2022-10-16T02:27:11;13.10;1.00
51595;DHT22;37677;53.254;6.594;2022-10-16T02:29:49;13.10;1.00
51595;DHT22;37677;53.254;6.594;2022-10-16T02:32:20;13.20;1.00
51595;DHT22;37677;53.254;6.594;2022-10-16T02:34:48;13.50;1.00
51595;DHT22;37677;53.254;6.594;2022-10-16T02:37:15;13.10;1.00
51595;DHT22;37677;53.254;6.594;2022-10-16T02:39:41;13.10;1.00
51595;DHT22;37677;53.254;6.594;2022-10-16T02:42:12;13.10;1.00
51595;DHT22;37677;53.254;6.594;2022-10-16T02:44:38;13.30;1.00
51595;DHT22;37677;53.254;6.594;2022-10-16T02:47:03;13.10;1.00
51595;DHT22;37677;53.254;6.594;2022-10-16T02:49:29;13.00;1.00
51595;DHT22;37677;53.254;6.594;2022-10-16T02:51:55;13.10;1.00
51595;DHT22;37677;53.254;6.594;2022-10-16T02:54:20;13.20;1.00
51595;DHT22;37677;53.254;6.594;2022-10-16T02:56:46;13.10;1.00
51595;DHT22;37677;53.254;6.594;2022-10-16T02:59:11;13.10;1.00
51595;DHT22;37677;53.254;6.594;2022-10-16T03:01:37;13.20;1.00
51595;DHT22;37677;53.254;6.594;2022-10-16T03:04:03;13.60;1.00
51595;DHT22;37677;53.254;6.594;2022-10-16T03:06:28;13.20;1.00
51595;DHT22;37677;53.254;6.594;2022-10-16T03:08:54;13.20;1.00
51595;DHT22;37677;53.254;6.594;2022-10-16T03:11:19;13.40;1.00
51595;DHT22;37677;53.254;6.594;2022-10-16T03:13:45;13.20;1.00
51595;DHT22;37677;53.254;6.594;2022-10-16T03:16:11;13.20;1.00
51595;DHT22;37677;53.254;6.594;2022-10-16T03:18:36;13.20;1.00
51595;DHT22;37677;53.254;6.594;2022-10-16T03:21:02;13.60;1.00
51595;DHT22;37677;53.254;6.594;2022-10-16T03:23:28;13.20;1.00
51595;DHT22;37677;53.254;6.594;2022-10-16T03:25:54;13.20;1.00
51595;DHT22;37677;53.254;6.594;2022-10-16T03:28:20;13.20;1.00
51595;DHT22;37677;53.254;6.594;2022-10-16T03:30:45;13.30;1.00
51595;DHT22;37677;53.254;6.594;2022-10-16T03:33:11;13.60;1.00
51595;DHT22;37677;53.254;6.594;2022-10-16T03:35:37;13.30;1.00
51595;DHT22;37677;53.254;6.594;2022-10-16T03:38:02;13.30;1.00
51595;DHT22;37677;53.254;6.594;2022-10-16T03:40:28;13.20;1.00
51595;DHT22;37677;53.254;6.594;2022-10-16T03:42:54;13.60;1.00
51595;DHT22;37677;53.254;6.594;2022-10-16T03:45:23;13.10;1.00
51595;DHT22;37677;53.254;6.594;2022-10-16T03:47:49;13.20;1.00
51595;DHT22;37677;53.254;6.594;2022-10-16T03:50:14;13.20;1.00
51595;DHT22;37677;53.254;6.594;2022-10-16T03:52:40;13.40;1.00
51595;DHT22;37677;53.254;6.594;2022-10-16T03:55:06;13.30;1.00
51595;DHT22;37677;53.254;6.594;2022-10-16T03:57:32;13.10;1.00
51595;DHT22;37677;53.254;6.594;2022-10-16T03:59:57;13.30;1.00
51595;DHT22;37677;53.254;6.594;2022-10-16T04:02:23;13.20;1.00
51595;DHT22;37677;53.254;6.594;2022-10-16T04:04:49;13.20;1.00
51595;DHT22;37677;53.254;6.594;2022-10-16T04:07:14;13.10;1.00
51595;DHT22;37677;53.254;6.594;2022-10-16T04:09:40;13.10;1.00
51595;DHT22;37677;53.254;6.594;2022-10-16T04:12:06;13.10;1.00
51595;DHT22;37677;53.254;6.594;2022-10-16T04:14:31;13.00;1.00
51595;DHT22;37677;53.254;6.594;2022-10-16T04:16:57;13.00;1.00
51595;DHT22;37677;53.254;6.594;2022-10-16T04:19:23;13.00;1.00
51595;DHT22;37677;53.254;6.594;2022-10-16T04:21:48;12.90;1.00
51595;DHT22;37677;53.254;6.594;2022-10-16T04:24:14;13.70;1.00
51595;DHT22;37677;53.254;6.594;2022-10-16T04:26:39;12.90;1.00
51595;DHT22;37677;53.254;6.594;2022-10-16T04:29:05;13.40;1.00
51595;DHT22;37677;53.254;6.594;2022-10-16T04:31:31;12.80;1.00
51595;DHT22;37677;53.254;6.594;2022-10-16T04:33:57;13.30;1.00
51595;DHT22;37677;53.254;6.594;2022-10-16T04:36:22;12.80;1.00
51595;DHT22;37677;53.254;6.594;2022-10-16T04:38:48;12.80;1.00
51595;DHT22;37677;53.254;6.594;2022-10-16T04:41:14;12.80;1.00
51595;DHT22;37677;53.254;6.594;2022-10-16T04:43:39;12.90;1.00
51595;DHT22;37677;53.254;6.594;2022-10-16T04:46:05;12.90;1.00
51595;DHT22;37677;53.254;6.594;2022-10-16T04:48:31;12.80;1.00
51595;DHT22;37677;53.254;6.594;2022-10-16T04:50:57;12.80;1.00
51595;DHT22;37677;53.254;6.594;2022-10-16T04:53:22;12.90;1.00
51595;DHT22;37677;53.254;6.594;2022-10-16T04:55:49;13.90;1.00
51595;DHT22;37677;53.254;6.594;2022-10-16T04:58:14;12.90;1.00
51595;DHT22;37677;53.254;6.594;2022-10-16T05:00:40;12.90;1.00
51595;DHT22;37677;53.254;6.594;2022-10-16T05:03:06;12.90;1.00
51595;DHT22;37677;53.254;6.594;2022-10-16T05:05:34;13.00;1.00
51595;DHT22;37677;53.254;6.594;2022-10-16T05:08:00;12.90;1.00
51595;DHT22;37677;53.254;6.594;2022-10-16T05:10:26;13.00;1.00
51595;DHT22;37677;53.254;6.594;2022-10-16T05:12:52;13.00;1.00
51595;DHT22;37677;53.254;6.594;2022-10-16T05:15:18;13.60;1.00
51595;DHT22;37677;53.254;6.594;2022-10-16T05:17:44;13.20;1.00
51595;DHT22;37677;53.254;6.594;2022-10-16T05:20:09;11.00;1.00
51595;DHT22;37677;53.254;6.594;2022-10-16T05:22:35;13.00;1.00
51595;DHT22;37677;53.254;6.594;2022-10-16T05:25:01;13.00;1.00
51595;DHT22;37677;53.254;6.594;2022-10-16T05:27:26;13.00;1.00
51595;DHT22;37677;53.254;6.594;2022-10-16T05:29:52;13.40;1.00
51595;DHT22;37677;53.254;6.594;2022-10-16T05:32:18;13.00;1.00
51595;DHT22;37677;53.254;6.594;2022-10-16T05:34:44;13.00;1.00
51595;DHT22;37677;53.254;6.594;2022-10-16T05:37:11;13.00;1.00
51595;DHT22;37677;53.254;6.594;2022-10-16T05:39:37;13.00;1.00
51595;DHT22;37677;53.254;6.594;2022-10-16T05:42:04;13.00;1.00
51595;DHT22;37677;53.254;6.594;2022-10-16T05:44:30;13.00;1.00
51595;DHT22;37677;53.254;6.594;2022-10-16T05:46:56;13.00;1.00
51595;DHT22;37677;53.254;6.594;2022-10-16T05:49:21;12.90;1.00
51595;DHT22;37677;53.254;6.594;2022-10-16T05:51:47;12.90;1.00
51595;DHT22;37677;53.254;6.594;2022-10-16T05:54:12;12.90;1.00
51595;DHT22;37677;53.254;6.594;2022-10-16T05:56:38;12.90;1.00
51595;DHT22;37677;53.254;6.594;2022-10-16T05:59:05;13.20;1.00
51595;DHT22;37677;53.254;6.594;2022-10-16T06:01:30;13.10;1.00
51595;DHT22;37677;53.254;6.594;2022-10-16T06:03:56;12.90;1.00
51595;DHT22;37677;53.254;6.594;2022-10-16T06:06:24;14.00;1.00
51595;DHT22;37677;53.254;6.594;2022-10-16T06:08:51;12.90;1.00
51595;DHT22;37677;53.254;6.594;2022-10-16T06:11:20;12.90;1.00
51595;DHT22;37677;53.254;6.594;2022-10-16T06:13:50;12.90;1.00
51595;DHT22;37677;53.254;6.594;2022-10-16T06:16:16;12.80;1.00
51595;DHT22;37677;53.254;6.594;2022-10-16T06:18:41;13.70;1.00
51595;DHT22;37677;53.254;6.594;2022-10-16T06:21:09;13.00;1.00
51595;DHT22;37677;53.254;6.594;2022-10-16T06:23:35;12.90;1.00
51595;DHT22;37677;53.254;6.594;2022-10-16T06:26:09;13.00;1.00
51595;DHT22;37677;53.254;6.594;2022-10-16T06:28:35;12.90;1.00
51595;DHT22;37677;53.254;6.594;2022-10-16T06:31:02;13.00;1.00
51595;DHT22;37677;53.254;6.594;2022-10-16T06:33:28;13.20;1.00
51595;DHT22;37677;53.254;6.594;2022-10-16T06:35:53;13.10;1.00
51595;DHT22;37677;53.254;6.594;2022-10-16T06:38:19;13.30;1.00
51595;DHT22;37677;53.254;6.594;2022-10-16T06:40:45;13.20;1.00
51595;DHT22;37677;53.254;6.594;2022-10-16T06:43:10;13.10;1.00
51595;DHT22;37677;53.254;6.594;2022-10-16T06:45:36;13.20;1.00
51595;DHT22;37677;53.254;6.594;2022-10-16T06:48:01;13.20;1.00
51595;DHT22;37677;53.254;6.594;2022-10-16T06:50:27;13.20;1.00
51595;DHT22;37677;53.254;6.594;2022-10-16T06:52:53;13.30;1.00
51595;DHT22;37677;53.254;6.594;2022-10-16T06:55:18;13.20;1.00
51595;DHT22;37677;53.254;6.594;2022-10-16T06:57:47;13.20;1.00
51595;DHT22;37677;53.254;6.594;2022-10-16T07:00:13;13.20;1.00
51595;DHT22;37677;53.254;6.594;2022-10-16T07:02:38;13.20;1.00
51595;DHT22;37677;53.254;6.594;2022-10-16T07:05:04;13.30;1.00
51595;DHT22;37677;53.254;6.594;2022-10-16T07:07:30;13.30;1.00
51595;DHT22;37677;53.254;6.594;2022-10-16T07:09:55;13.30;1.00
51595;DHT22;37677;53.254;6.594;2022-10-16T07:12:21;13.30;1.00
51595;DHT22;37677;53.254;6.594;2022-10-16T07:14:46;13.30;1.00
51595;DHT22;37677;53.254;6.594;2022-10-16T07:17:12;13.80;1.00
51595;DHT22;37677;53.254;6.594;2022-10-16T07:19:38;13.30;1.00
51595;DHT22;37677;53.254;6.594;2022-10-16T07:22:03;13.40;1.00
51595;DHT22;37677;53.254;6.594;2022-10-16T07:24:30;13.40;1.00
51595;DHT22;37677;53.254;6.594;2022-10-16T07:26:55;13.40;1.00
51595;DHT22;37677;53.254;6.594;2022-10-16T07:29:21;13.50;1.00
51595;DHT22;37677;53.254;6.594;2022-10-16T07:31:48;13.50;1.00
51595;DHT22;37677;53.254;6.594;2022-10-16T07:34:15;13.50;1.00
51595;DHT22;37677;53.254;6.594;2022-10-16T07:36:41;13.50;1.00
51595;DHT22;37677;53.254;6.594;2022-10-16T07:39:07;13.60;1.00
51595;DHT22;37677;53.254;6.594;2022-10-16T07:41:33;13.60;1.00
51595;DHT22;37677;53.254;6.594;2022-10-16T07:44:02;13.60;1.00
51595;DHT22;37677;53.254;6.594;2022-10-16T07:46:29;13.60;1.00
51595;DHT22;37677;53.254;6.594;2022-10-16T07:48:55;14.10;1.00
51595;DHT22;37677;53.254;6.594;2022-10-16T07:51:24;13.60;1.00
51595;DHT22;37677;53.254;6.594;2022-10-16T07:53:51;13.60;1.00
51595;DHT22;37677;53.254;6.594;2022-10-16T07:56:18;13.60;1.00
51595;DHT22;37677;53.254;6.594;2022-10-16T07:58:44;13.70;1.00
51595;DHT22;37677;53.254;6.594;2022-10-16T08:01:12;13.60;1.00
51595;DHT22;37677;53.254;6.594;2022-10-16T08:03:41;13.60;1.00
51595;DHT22;37677;53.254;6.594;2022-10-16T08:06:07;13.70;1.00
51595;DHT22;37677;53.254;6.594;2022-10-16T08:08:33;13.70;1.00
51595;DHT22;37677;53.254;6.594;2022-10-16T08:10:59;13.70;1.00
51595;DHT22;37677;53.254;6.594;2022-10-16T08:13:24;14.00;1.00
51595;DHT22;37677;53.254;6.594;2022-10-16T08:15:53;14.30;1.00
51595;DHT22;37677;53.254;6.594;2022-10-16T08:18:19;14.50;1.00
51595;DHT22;37677;53.254;6.594;2022-10-16T08:20:44;15.00;1.00
51595;DHT22;37677;53.254;6.594;2022-10-16T08:23:13;15.30;1.00
51595;DHT22;37677;53.254;6.594;2022-10-16T08:25:39;15.40;99.90
51595;DHT22;37677;53.254;6.594;2022-10-16T08:28:07;15.80;1.00
51595;DHT22;37677;53.254;6.594;2022-10-16T08:30:33;15.90;99.90
51595;DHT22;37677;53.254;6.594;2022-10-16T08:32:59;16.10;99.90
51595;DHT22;37677;53.254;6.594;2022-10-16T08:35:25;16.00;99.90
51595;DHT22;37677;53.254;6.594;2022-10-16T08:37:50;16.40;99.90
51595;DHT22;37677;53.254;6.594;2022-10-16T08:50:41;17.20;1.00
51595;DHT22;37677;53.254;6.594;2022-10-16T08:53:27;17.80;1.00
51595;DHT22;37677;53.254;6.594;2022-10-16T08:55:54;18.10;99.90
51595;DHT22;37677;53.254;6.594;2022-10-16T08:58:22;18.10;1.00
51595;DHT22;37677;53.254;6.594;2022-10-16T09:00:57;17.20;8.10
51595;DHT22;37677;53.254;6.594;2022-10-16T09:03:46;16.70;99.90
51595;DHT22;37677;53.254;6.594;2022-10-16T09:22:47;16.60;64.60
51595;DHT22;37677;53.254;6.594;2022-10-16T09:25:20;16.70;1.00
51595;DHT22;37677;53.254;6.594;2022-10-16T09:27:48;16.50;1.00
51595;DHT22;37677;53.254;6.594;2022-10-16T09:30:17;16.20;1.00
51595;DHT22;37677;53.254;6.594;2022-10-16T09:32:43;16.50;1.00
51595;DHT22;37677;53.254;6.594;2022-10-16T09:35:37;16.50;1.00
51595;DHT22;37677;53.254;6.594;2022-10-16T09:38:01;18.10;31.60
51595;DHT22;37677;53.254;6.594;2022-10-16T09:40:33;18.10;1.00
51595;DHT22;37677;53.254;6.594;2022-10-16T09:43:13;18.80;99.90
51595;DHT22;37677;53.254;6.594;2022-10-16T09:45:43;18.60;1.00
51595;DHT22;37677;53.254;6.594;2022-10-16T09:48:19;18.30;1.00
51595;DHT22;37677;53.254;6.594;2022-10-16T09:53:21;19.10;1.00
51595;DHT22;37677;53.254;6.594;2022-10-16T09:55:52;19.00;99.90
51595;DHT22;37677;53.254;6.594;2022-10-16T09:58:21;18.60;99.90
51595;DHT22;37677;53.254;6.594;2022-10-16T10:00:53;18.30;99.90
51595;DHT22;37677;53.254;6.594;2022-10-16T10:03:35;18.10;99.90
51595;DHT22;37677;53.254;6.594;2022-10-16T10:10:59;19.00;99.90
51595;DHT22;37677;53.254;6.594;2022-10-16T10:13:25;19.50;99.90
51595;DHT22;37677;53.254;6.594;2022-10-16T10:15:53;19.70;40.10
51595;DHT22;37677;53.254;6.594;2022-10-16T10:18:21;19.90;99.90
51595;DHT22;37677;53.254;6.594;2022-10-16T10:20:59;20.40;1.00
51595;DHT22;37677;53.254;6.594;2022-10-16T10:23:27;20.80;99.90
51595;DHT22;37677;53.254;6.594;2022-10-16T10:26:13;20.90;99.90
51595;DHT22;37677;53.254;6.594;2022-10-16T10:29:04;20.30;1.00
51595;DHT22;37677;53.254;6.594;2022-10-16T10:34:35;19.40;99.90
51595;DHT22;37677;53.254;6.594;2022-10-16T10:39:49;19.10;99.90
51595;DHT22;37677;53.254;6.594;2022-10-16T10:42:48;19.30;99.90
51595;DHT22;37677;53.254;6.594;2022-10-16T10:45:38;19.00;23.70
51595;DHT22;37677;53.254;6.594;2022-10-16T10:48:38;18.90;99.90
51595;DHT22;37677;53.254;6.594;2022-10-16T10:51:13;18.80;56.50
51595;DHT22;37677;53.254;6.594;2022-10-16T10:57:02;18.00;99.90
51595;DHT22;37677;53.254;6.594;2022-10-16T11:02:44;18.80;6.40
51595;DHT22;37677;53.254;6.594;2022-10-16T11:05:40;18.90;99.90
51595;DHT22;37677;53.254;6.594;2022-10-16T11:11:08;18.60;99.90
51595;DHT22;37677;53.254;6.594;2022-10-16T11:13:51;18.50;99.90
51595;DHT22;37677;53.254;6.594;2022-10-16T11:16:26;18.40;35.50
51595;DHT22;37677;53.254;6.594;2022-10-16T11:19:02;18.20;99.90
51595;DHT22;37677;53.254;6.594;2022-10-16T11:21:36;18.10;99.90
51595;DHT22;37677;53.254;6.594;2022-10-16T11:24:15;18.10;99.90
51595;DHT22;37677;53.254;6.594;2022-10-16T11:26:43;18.20;99.90
51595;DHT22;37677;53.254;6.594;2022-10-16T11:29:25;18.30;99.90
51595;DHT22;37677;53.254;6.594;2022-10-16T11:32:10;18.60;1.00
51595;DHT22;37677;53.254;6.594;2022-10-16T11:34:45;18.70;99.90
51595;DHT22;37677;53.254;6.594;2022-10-16T11:37:17;18.70;99.90
51595;DHT22;37677;53.254;6.594;2022-10-16T11:39:44;18.90;99.90
51595;DHT22;37677;53.254;6.594;2022-10-16T11:45:00;18.60;99.90
51595;DHT22;37677;53.254;6.594;2022-10-16T11:50:40;18.50;99.90
51595;DHT22;37677;53.254;6.594;2022-10-16T11:53:07;18.30;88.70
51595;DHT22;37677;53.254;6.594;2022-10-16T11:55:37;18.30;99.90
51595;DHT22;37677;53.254;6.594;2022-10-16T11:58:07;18.40;99.90
51595;DHT22;37677;53.254;6.594;2022-10-16T12:00:47;18.20;99.90
51595;DHT22;37677;53.254;6.594;2022-10-16T12:03:39;18.10;99.90
51595;DHT22;37677;53.254;6.594;2022-10-16T12:06:33;18.10;1.00
51595;DHT22;37677;53.254;6.594;2022-10-16T12:09:00;17.90;1.00
51595;DHT22;37677;53.254;6.594;2022-10-16T12:17:42;17.60;1.00
51595;DHT22;37677;53.254;6.594;2022-10-16T12:22:52;17.60;1.00
51595;DHT22;37677;53.254;6.594;2022-10-16T12:28:19;17.40;99.90
51595;DHT22;37677;53.254;6.594;2022-10-16T12:31:00;17.30;1.00
51595;DHT22;37677;53.254;6.594;2022-10-16T12:33:29;17.30;1.00
51595;DHT22;37677;53.254;6.594;2022-10-16T12:35:58;17.30;99.90
51595;DHT22;37677;53.254;6.594;2022-10-16T12:38:37;17.20;1.00
51595;DHT22;37677;53.254;6.594;2022-10-16T12:41:08;17.10;99.90
51595;DHT22;37677;53.254;6.594;2022-10-16T12:43:47;17.00;99.90
51595;DHT22;37677;53.254;6.594;2022-10-16T12:48:41;16.90;1.00
51595;DHT22;37677;53.254;6.594;2022-10-16T12:51:34;16.90;1.00
51595;DHT22;37677;53.254;6.594;2022-10-16T12:59:56;16.90;1.00
51595;DHT22;37677;53.254;6.594;2022-10-16T13:11:00;16.70;1.00
51595;DHT22;37677;53.254;6.594;2022-10-16T13:25:28;16.70;99.90
51595;DHT22;37677;53.254;6.594;2022-10-16T13:28:07;16.60;99.90
51595;DHT22;37677;53.254;6.594;2022-10-16T13:30:44;16.60;99.80
51595;DHT22;37677;53.254;6.594;2022-10-16T13:35:55;16.60;99.90
51595;DHT22;37677;53.254;6.594;2022-10-16T13:38:24;16.60;99.90
51595;DHT22;37677;53.254;6.594;2022-10-16T13:41:16;16.50;89.60
51595;DHT22;37677;53.254;6.594;2022-10-16T13:43:51;16.40;1.00
51595;DHT22;37677;53.254;6.594;2022-10-16T13:46:20;16.30;80.10
51595;DHT22;37677;53.254;6.594;2022-10-16T13:48:57;16.80;23.60
51595;DHT22;37677;53.254;6.594;2022-10-16T13:51:23;16.30;88.60
51595;DHT22;37677;53.254;6.594;2022-10-16T13:53:49;16.50;99.90
51595;DHT22;37677;53.254;6.594;2022-10-16T13:56:21;16.70;99.90
51595;DHT22;37677;53.254;6.594;2022-10-16T13:59:05;16.60;99.90
51595;DHT22;37677;53.254;6.594;2022-10-16T14:01:43;16.70;99.90
51595;DHT22;37677;53.254;6.594;2022-10-16T14:04:11;16.60;15.60
51595;DHT22;37677;53.254;6.594;2022-10-16T14:06:43;16.60;49.30
51595;DHT22;37677;53.254;6.594;2022-10-16T14:09:29;16.60;99.90
51595;DHT22;37677;53.254;6.594;2022-10-16T14:12:07;16.60;99.90
51595;DHT22;37677;53.254;6.594;2022-10-16T14:14:45;16.60;99.90
51595;DHT22;37677;53.254;6.594;2022-10-16T14:17:31;16.60;99.90
51595;DHT22;37677;53.254;6.594;2022-10-16T14:20:00;16.70;99.90
51595;DHT22;37677;53.254;6.594;2022-10-16T14:22:39;16.60;99.90
51595;DHT22;37677;53.254;6.594;2022-10-16T14:25:37;16.60;99.90
51595;DHT22;37677;53.254;6.594;2022-10-16T14:28:03;16.60;99.90
51595;DHT22;37677;53.254;6.594;2022-10-16T14:30:32;16.50;99.90
51595;DHT22;37677;53.254;6.594;2022-10-16T14:33:01;16.50;99.90
51595;DHT22;37677;53.254;6.594;2022-10-16T14:38:00;16.40;99.90
51595;DHT22;37677;53.254;6.594;2022-10-16T14:40:35;16.30;99.90
51595;DHT22;37677;53.254;6.594;2022-10-16T14:43:03;16.30;99.90
51595;DHT22;37677;53.254;6.594;2022-10-16T14:45:31;16.30;99.90
51595;DHT22;37677;53.254;6.594;2022-10-16T14:48:04;16.30;99.90
51595;DHT22;37677;53.254;6.594;2022-10-16T14:50:31;16.40;99.90
51595;DHT22;37677;53.254;6.594;2022-10-16T14:52:58;16.10;1.00
51595;DHT22;37677;53.254;6.594;2022-10-16T14:55:25;16.10;1.00
51595;DHT22;37677;53.254;6.594;2022-10-16T14:57:51;16.00;1.00
51595;DHT22;37677;53.254;6.594;2022-10-16T15:00:20;16.00;1.00
51595;DHT22;37677;53.254;6.594;2022-10-16T15:02:47;16.00;1.00
51595;DHT22;37677;53.254;6.594;2022-10-16T15:05:22;15.90;1.00
51595;DHT22;37677;53.254;6.594;2022-10-16T15:07:50;15.80;1.00
51595;DHT22;37677;53.254;6.594;2022-10-16T15:10:17;15.80;94.40
51595;DHT22;37677;53.254;6.594;2022-10-16T15:12:43;15.70;99.90
51595;DHT22;37677;53.254;6.594;2022-10-16T15:15:41;15.70;99.90
51595;DHT22;37677;53.254;6.594;2022-10-16T15:18:07;15.70;99.90
51595;DHT22;37677;53.254;6.594;2022-10-16T15:20:35;15.70;99.90
51595;DHT22;37677;53.254;6.594;2022-10-16T15:23:04;15.60;99.90
51595;DHT22;37677;53.254;6.594;2022-10-16T15:25:59;15.60;99.90
51595;DHT22;37677;53.254;6.594;2022-10-16T15:28:25;15.60;44.70
51595;DHT22;37677;53.254;6.594;2022-10-16T15:30:55;15.50;99.90
51595;DHT22;37677;53.254;6.594;2022-10-16T15:33:24;15.50;99.90
51595;DHT22;37677;53.254;6.594;2022-10-16T15:35:52;15.50;99.90
51595;DHT22;37677;53.254;6.594;2022-10-16T15:38:20;15.40;99.90
51595;DHT22;37677;53.254;6.594;2022-10-16T15:40:47;15.40;97.60
51595;DHT22;37677;53.254;6.594;2022-10-16T15:43:13;15.40;8.10
51595;DHT22;37677;53.254;6.594;2022-10-16T15:45:39;15.20;99.90
51595;DHT22;37677;53.254;6.594;2022-10-16T15:48:05;15.30;1.00
51595;DHT22;37677;53.254;6.594;2022-10-16T15:50:31;15.10;1.00
51595;DHT22;37677;53.254;6.594;2022-10-16T15:52:57;15.20;99.90
51595;DHT22;37677;53.254;6.594;2022-10-16T15:55:23;15.20;99.90
51595;DHT22;37677;53.254;6.594;2022-10-16T15:57:49;15.10;99.90
51595;DHT22;37677;53.254;6.594;2022-10-16T16:00:17;15.10;1.00
51595;DHT22;37677;53.254;6.594;2022-10-16T16:02:50;15.00;1.00
51595;DHT22;37677;53.254;6.594;2022-10-16T16:05:16;15.00;1.00
51595;DHT22;37677;53.254;6.594;2022-10-16T16:07:42;14.90;1.10
51595;DHT22;37677;53.254;6.594;2022-10-16T16:10:10;14.90;28.70
51595;DHT22;37677;53.254;6.594;2022-10-16T16:12:37;14.90;59.80
51595;DHT22;37677;53.254;6.594;2022-10-16T16:15:04;14.90;41.20
51595;DHT22;37677;53.254;6.594;2022-10-16T16:17:32;14.80;99.90
51595;DHT22;37677;53.254;6.594;2022-10-16T16:19:58;14.70;99.90
51595;DHT22;37677;53.254;6.594;2022-10-16T16:22:24;14.70;99.90
51595;DHT22;37677;53.254;6.594;2022-10-16T16:24:50;14.90;99.90
51595;DHT22;37677;53.254;6.594;2022-10-16T16:27:16;14.60;99.90
51595;DHT22;37677;53.254;6.594;2022-10-16T16:29:43;14.80;99.90
51595;DHT22;37677;53.254;6.594;2022-10-16T16:32:09;14.60;99.90
51595;DHT22;37677;53.254;6.594;2022-10-16T16:34:35;14.50;99.90
51595;DHT22;37677;53.254;6.594;2022-10-16T16:37:01;14.40;99.90
51595;DHT22;37677;53.254;6.594;2022-10-16T16:39:26;15.20;99.90
51595;DHT22;37677;53.254;6.594;2022-10-16T16:41:52;14.20;99.90
51595;DHT22;37677;53.254;6.594;2022-10-16T16:44:18;14.10;99.90
51595;DHT22;37677;53.254;6.594;2022-10-16T16:46:44;14.10;99.90
51595;DHT22;37677;53.254;6.594;2022-10-16T16:49:11;14.00;99.90
51595;DHT22;37677;53.254;6.594;2022-10-16T16:51:38;14.00;99.90
51595;DHT22;37677;53.254;6.594;2022-10-16T16:54:04;13.90;99.90
51595;DHT22;37677;53.254;6.594;2022-10-16T16:56:30;13.80;99.90
51595;DHT22;37677;53.254;6.594;2022-10-16T16:58:56;13.80;99.90
51595;DHT22;37677;53.254;6.594;2022-10-16T17:01:24;12.60;99.90
51595;DHT22;37677;53.254;6.594;2022-10-16T17:03:51;13.60;99.90
51595;DHT22;37677;53.254;6.594;2022-10-16T17:06:19;13.50;99.90
51595;DHT22;37677;53.254;6.594;2022-10-16T17:08:45;13.80;99.90
51595;DHT22;37677;53.254;6.594;2022-10-16T17:11:20;14.50;99.90
51595;DHT22;37677;53.254;6.594;2022-10-16T17:13:46;13.40;99.90
51595;DHT22;37677;53.254;6.594;2022-10-16T17:16:12;13.60;99.90
51595;DHT22;37677;53.254;6.594;2022-10-16T17:18:38;13.60;1.00
51595;DHT22;37677;53.254;6.594;2022-10-16T17:21:07;13.50;1.00
51595;DHT22;37677;53.254;6.594;2022-10-16T17:23:33;13.90;1.00
51595;DHT22;37677;53.254;6.594;2022-10-16T17:26:11;13.10;1.00
51595;DHT22;37677;53.254;6.594;2022-10-16T17:33:33;12.90;1.00
51595;DHT22;37677;53.254;6.594;2022-10-16T17:35:59;12.70;1.00
51595;DHT22;37677;53.254;6.594;2022-10-16T17:38:24;12.80;1.00
51595;DHT22;37677;53.254;6.594;2022-10-16T17:40:50;12.80;1.00
51595;DHT22;37677;53.254;6.594;2022-10-16T17:43:16;12.80;1.00
51595;DHT22;37677;53.254;6.594;2022-10-16T17:45:41;12.80;1.00